Time;durP1;ratioP1;P1;durP2;ratioP2;P2;SDS_P1;SDS_P2;PMS_P1;PMS_P2;Temp;Humidity;BMP_temperature;BMP_pressure;BME280_temperature;BME280_humidity;BME280_pressure;Samples;Min_cycle;Max_cycle;Signal;HPM_P1;HPM_P2
2023/12/16 00:00:05;;;;;;;4.68;4.07;;;;;;;-0.73;100.00;98605.66;10364427;28;20116;-49
2023/12/16 00:05:04;;;;;;;4.78;4.28;;;;;;;0.27;100.00;98815.34;10364291;28;20049;-50
2023/12/16 00:10:06;;;;;;;4.45;4.05;;;;;;;-0.82;100.00;98649.31;10363533;28;20117;-49
2023/12/16 00:15:08;;;;;;;5.10;4.13;;;;;;;0.18;100.00;98817.38;10364909;28;20057;-49
2023/12/16 00:20:07;;;;;;;5.82;4.18;;;;;;;-0.27;100.00;98780.78;10364174;28;21759;-49
2023/12/16 00:25:07;;;;;;;21.05;12.65;;;;;;;-1.01;100.00;98661.78;10361709;28;20048;-49
2023/12/16 00:30:08;;;;;;;16.92;8.75;;;;;;;0.06;100.00;98866.03;10365028;28;20148;-49
2023/12/16 00:35:07;;;;;;;8.93;6.15;;;;;;;-0.18;100.00;98883.34;10368615;28;20111;-49
2023/12/16 00:40:07;;;;;;;9.07;6.35;;;;;;;-0.94;100.00;98785.31;10372756;28;20522;-49
2023/12/16 00:45:07;;;;;;;11.27;6.60;;;;;;;-0.21;100.00;98885.72;10372731;28;20116;-49
2023/12/16 00:50:08;;;;;;;5.05;3.10;;;;;;;-0.45;100.00;98908.94;10372127;28;20103;-49
2023/12/16 00:55:07;;;;;;;2.83;2.63;;;;;;;-0.77;100.00;98873.84;10372292;28;20116;-50
2023/12/16 01:00:06;;;;;;;;;;;;;;;-0.58;100.00;98898.78;10372608;28;20040;-49
2023/12/16 01:05:06;;;;;;;4.27;3.60;;;;;;;-0.88;100.00;98834.97;10372086;28;19955;-49
2023/12/16 01:10:05;;;;;;;4.07;3.25;;;;;;;-0.84;100.00;98841.13;10370604;28;20651;-50
2023/12/16 01:15:05;;;;;;;5.47;3.42;;;;;;;-0.29;100.00;98920.97;10371704;28;20456;-51
2023/12/16 01:20:05;;;;;;;5.00;4.13;;;;;;;-0.45;100.00;98901.31;10370898;28;20072;-49
2023/12/16 01:25:05;;;;;;;4.15;3.35;;;;;;;-0.56;100.00;98892.13;10371418;28;20625;-49
2023/12/16 01:30:05;;;;;;;20.83;12.43;;;;;;;-0.31;100.00;98908.91;10370542;28;20156;-50
2023/12/16 01:35:04;;;;;;;16.70;9.52;;;;;;;-0.21;100.00;98929.06;10369682;28;20173;-48
2023/12/16 01:40:04;;;;;;;11.95;6.90;;;;;;;-1.41;100.00;98705.22;10369466;28;20056;-48
2023/12/16 01:45:04;;;;;;;10.30;6.38;;;;;;;-0.40;100.00;98884.59;10370168;28;20052;-50
2023/12/16 01:50:03;;;;;;;9.20;5.45;;;;;;;-0.56;100.00;98850.44;10369779;28;20115;-49
2023/12/16 01:55:02;;;;;;;14.68;7.68;;;;;;;-0.78;100.00;98843.19;10370201;28;20112;-50
2023/12/16 02:00:03;;;;;;;;;;;;;;;-0.18;100.00;98942.03;10369556;28;20055;-49
2023/12/16 02:05:02;;;;;;;;;;;;;;;-0.02;100.00;98946.34;10370325;28;19951;-49
2023/12/16 02:10:01;;;;;;;13.48;8.15;;;;;;;-0.19;100.00;98941.13;10369316;28;19920;-49
2023/12/16 02:15:00;;;;;;;15.52;9.18;;;;;;;-0.17;100.00;98944.66;10366882;28;20104;-49
2023/12/16 02:19:59;;;;;;;24.70;14.45;;;;;;;-0.38;100.00;98938.25;10367782;28;20076;-49
2023/12/16 02:24:59;;;;;;;14.10;8.07;;;;;;;-0.31;100.00;98950.59;10368898;28;20064;-49
2023/12/16 02:29:58;;;;;;;10.52;6.00;;;;;;;-0.35;100.00;98973.28;10368176;28;20112;-49
2023/12/16 02:34:57;;;;;;;14.85;9.57;;;;;;;-0.40;100.00;98961.09;10368568;28;20107;-50
2023/12/16 02:39:56;;;;;;;13.00;8.02;;;;;;;-0.39;100.00;98962.00;10368204;28;20043;-49
2023/12/16 02:44:54;;;;;;;11.40;7.00;;;;;;;-0.18;100.00;99003.25;10368195;28;20447;-49
2023/12/16 02:49:53;;;;;;;12.20;7.20;;;;;;;-0.68;100.00;98929.59;10367591;28;20031;-49
2023/12/16 02:54:52;;;;;;;12.07;7.63;;;;;;;-0.19;100.00;99009.13;10367864;28;20032;-49
2023/12/16 02:59:51;;;;;;;9.20;5.93;;;;;;;-1.48;100.00;98810.88;10365030;28;20037;-49
2023/12/16 03:04:51;;;;;;;9.25;5.20;;;;;;;-0.32;100.00;98998.94;10367618;28;20017;-49
2023/12/16 03:09:50;;;;;;;7.15;4.40;;;;;;;-0.30;100.00;99028.84;10367104;28;20079;-49
2023/12/16 03:14:49;;;;;;;11.55;5.82;;;;;;;-0.41;100.00;99019.69;10367121;28;20391;-49
2023/12/16 03:19:48;;;;;;;7.57;5.43;;;;;;;-0.63;100.00;99013.22;10366553;28;20044;-51
2023/12/16 03:24:47;;;;;;;8.70;5.20;;;;;;;-0.46;100.00;99021.94;10366922;28;20040;-49
2023/12/16 03:29:46;;;;;;;7.35;4.18;;;;;;;-0.41;100.00;99035.00;10366664;28;20039;-50
2023/12/16 03:34:45;;;;;;;;;;;;;;;-0.21;100.00;99052.38;10367251;28;20460;-49
2023/12/16 03:39:44;;;;;;;8.88;4.88;;;;;;;-0.26;100.00;99038.47;10366895;28;20620;-49
2023/12/16 03:44:46;;;;;;;10.40;5.88;;;;;;;-0.18;100.00;99038.97;10366658;28;20568;-49
2023/12/16 03:49:45;;;;;;;9.85;5.82;;;;;;;-0.30;100.00;99039.06;10366206;28;20072;-49
2023/12/16 03:54:45;;;;;;;11.30;6.05;;;;;;;-0.74;100.00;98983.66;10366461;28;20017;-49
2023/12/16 03:59:44;;;;;;;8.25;4.80;;;;;;;-0.25;100.00;99072.50;10365980;28;20117;-50
2023/12/16 04:04:42;;;;;;;8.25;4.53;;;;;;;-0.85;100.00;98962.56;10365255;28;20048;-49
2023/12/16 04:09:41;;;;;;;7.82;4.75;;;;;;;-0.28;100.00;99083.41;10369313;28;20120;-49
2023/12/16 04:14:40;;;;;;;8.02;4.10;;;;;;;-0.56;100.00;99079.91;10373719;28;20108;-49
2023/12/16 04:19:49;;;;;;;8.85;4.82;;;;;;;-0.51;100.00;99081.06;10373509;28;20094;-49
2023/12/16 04:24:50;;;;;;;10.32;5.63;;;;;;;-0.64;100.00;99077.75;10373645;28;20057;-49
2023/12/16 04:29:49;;;;;;;11.75;6.50;;;;;;;-0.19;100.00;99112.03;10372533;28;20071;-49
2023/12/16 04:34:48;;;;;;;9.65;5.47;;;;;;;-0.66;100.00;99056.38;10372163;28;20025;-49
2023/12/16 04:39:47;;;;;;;9.95;5.28;;;;;;;-0.24;100.00;99104.91;10373342;28;20102;-49
2023/12/16 04:44:46;;;;;;;14.95;8.13;;;;;;;-0.23;100.00;99087.16;10371641;28;20035;-50
2023/12/16 04:49:45;;;;;;;12.70;6.93;;;;;;;-0.25;100.00;99086.16;10372667;28;20507;-51
2023/12/16 04:54:45;;;;;;;10.35;6.05;;;;;;;0.06;100.00;99103.38;10371987;28;20489;-50
2023/12/16 04:59:43;;;;;;;13.95;8.07;;;;;;;0.30;100.00;99134.63;10371001;28;20057;-49
2023/12/16 05:04:42;;;;;;;11.32;6.68;;;;;;;-0.26;100.00;99092.03;10371585;28;20108;-50
2023/12/16 05:09:41;;;;;;;8.55;4.90;;;;;;;-0.49;100.00;99103.31;10371832;28;20834;-50
2023/12/16 05:14:40;;;;;;;8.52;5.63;;;;;;;-0.80;100.00;99072.44;10370696;28;20763;-49
2023/12/16 05:19:39;;;;;;;12.63;7.20;;;;;;;-0.38;100.00;99140.59;10370494;28;20506;-49
2023/12/16 05:24:40;;;;;;;11.00;7.13;;;;;;;-0.40;100.00;99165.13;10370375;28;20033;-49
2023/12/16 05:29:41;;;;;;;16.98;12.20;;;;;;;-0.30;100.00;99143.63;10370039;28;20075;-49
2023/12/16 05:34:40;;;;;;;19.17;13.13;;;;;;;0.05;100.00;99166.31;10368460;28;20060;-50
2023/12/16 05:39:38;;;;;;;14.98;10.05;;;;;;;-0.26;100.00;99116.69;10368871;28;20035;-50
2023/12/16 05:44:37;;;;;;;12.52;6.55;;;;;;;-0.27;100.00;99145.53;10368217;28;20053;-49
2023/12/16 05:49:36;;;;;;;13.55;7.63;;;;;;;-0.07;100.00;99173.16;10369762;28;20732;-51
2023/12/16 05:54:35;;;;;;;13.73;8.32;;;;;;;-0.48;100.00;99114.44;10369473;28;20636;-50
2023/12/16 05:59:34;;;;;;;29.13;16.08;;;;;;;-0.56;100.00;99096.06;10368628;28;21054;-49
2023/12/16 06:04:34;;;;;;;105.00;50.03;;;;;;;0.04;100.00;99196.84;10368376;28;20419;-50
2023/12/16 06:09:33;;;;;;;59.03;30.30;;;;;;;-0.49;100.00;99087.16;10370022;28;20758;-49
2023/12/16 06:14:32;;;;;;;281.30;137.65;;;;;;;-0.26;100.00;99099.69;10368774;28;20043;-50
2023/12/16 06:19:31;;;;;;;18.35;10.80;;;;;;;-0.10;100.00;99173.00;10368980;28;20157;-53
2023/12/16 06:24:30;;;;;;;19.90;11.95;;;;;;;-0.16;100.00;99175.13;10368583;28;20654;-49
2023/12/16 06:29:29;;;;;;;17.30;10.85;;;;;;;0.13;100.00;99191.44;10368824;28;20106;-50
2023/12/16 06:34:28;;;;;;;28.52;16.85;;;;;;;0.34;100.00;99210.66;10367470;28;20523;-50
2023/12/16 06:39:27;;;;;;;21.08;12.18;;;;;;;-0.01;100.00;99195.66;10368508;28;20108;-49
2023/12/16 06:44:26;;;;;;;16.05;10.60;;;;;;;0.03;100.00;99230.78;10367718;28;20072;-51
2023/12/16 06:49:25;;;;;;;14.38;9.32;;;;;;;-0.12;100.00;99242.56;10368016;28;20113;-49
2023/12/16 06:54:24;;;;;;;24.10;13.35;;;;;;;0.09;100.00;99278.81;10367848;28;20124;-50
2023/12/16 06:59:23;;;;;;;14.68;7.53;;;;;;;-0.98;100.00;99146.00;10366749;28;20044;-51
2023/12/16 07:04:24;;;;;;;18.23;10.00;;;;;;;-0.37;100.00;99248.59;10367002;28;20484;-52
2023/12/16 07:09:23;;;;;;;24.27;15.35;;;;;;;-0.42;100.00;99249.97;10367366;28;20058;-51
2023/12/16 07:14:22;;;;;;;22.77;15.68;;;;;;;-0.42;100.00;99258.50;10366765;28;20031;-50
2023/12/16 07:19:21;;;;;;;23.63;14.77;;;;;;;-0.71;100.00;99230.19;10367302;28;20116;-50
2023/12/16 07:24:20;;;;;;;21.83;13.65;;;;;;;-0.17;100.00;99319.69;10364617;28;20133;-48
2023/12/16 07:29:20;;;;;;;28.77;16.95;;;;;;;-0.16;100.00;99298.50;10366562;28;20021;-49
2023/12/16 07:34:20;;;;;;;34.40;18.27;;;;;;;-0.15;100.00;99284.06;10365787;28;20725;-49
2023/12/16 07:39:19;;;;;;;26.52;13.63;;;;;;;-0.05;100.00;99332.38;10365614;28;20147;-50
2023/12/16 07:44:18;;;;;;;25.80;15.15;;;;;;;0.01;100.00;99325.13;10370213;28;20120;-51
2023/12/16 07:49:19;;;;;;;26.27;17.40;;;;;;;-1.24;100.00;99126.44;10373653;28;20051;-49
2023/12/16 07:54:18;;;;;;;14.93;9.05;;;;;;;-0.45;100.00;99283.81;10371729;28;20060;-49
2023/12/16 07:59:17;;;;;;;26.40;17.52;;;;;;;-1.17;100.00;99137.91;10373646;28;20036;-49
2023/12/16 08:04:17;;;;;;;20.20;12.52;;;;;;;0.08;100.00;99357.03;10373800;28;20137;-49
2023/12/16 08:09:16;;;;;;;16.60;10.07;;;;;;;-0.01;100.00;99338.56;10374027;28;20112;-49
2023/12/16 08:14:15;;;;;;;22.15;12.45;;;;;;;0.24;100.00;99364.94;10367195;28;20388;-49
2023/12/16 08:19:14;;;;;;;20.35;14.35;;;;;;;0.37;100.00;99369.16;10370805;28;20153;-50
2023/12/16 08:24:13;;;;;;;23.65;14.20;;;;;;;0.46;100.00;99349.31;10371943;28;20073;-49
2023/12/16 08:29:12;;;;;;;26.15;16.92;;;;;;;0.28;100.00;99343.00;10370664;28;20112;-49
2023/12/16 08:34:11;;;;;;;34.92;20.25;;;;;;;0.65;100.00;99369.25;10371335;28;20626;-49
2023/12/16 08:39:10;;;;;;;28.33;16.85;;;;;;;0.51;100.00;99384.50;10364619;28;20156;-49
2023/12/16 08:44:09;;;;;;;16.88;10.73;;;;;;;0.43;100.00;99394.22;10370795;28;20033;-49
2023/12/16 08:49:08;;;;;;;;;;;;;;;0.81;100.00;99381.34;10371472;28;20514;-48
2023/12/16 08:54:07;;;;;;;83.10;36.33;;;;;;;0.52;100.00;99353.91;10371372;28;20336;-49
2023/12/16 08:59:06;;;;;;;21.10;11.77;;;;;;;0.60;100.00;99367.22;10371292;28;20052;-50
2023/12/16 09:04:05;;;;;;;16.85;12.30;;;;;;;0.93;100.00;99380.34;10369693;28;20063;-50
2023/12/16 09:09:04;;;;;;;32.33;22.30;;;;;;;0.89;100.00;99335.81;10368273;28;20033;-49
2023/12/16 09:14:05;;;;;;;22.73;14.02;;;;;;;1.18;100.00;99334.16;10368907;28;20040;-50
2023/12/16 09:19:07;;;;;;;28.75;16.85;;;;;;;1.38;100.00;99340.50;10369293;28;20148;-49
2023/12/16 09:24:06;;;;;;;17.25;11.20;;;;;;;1.32;99.80;99328.25;10367886;28;20849;-49
2023/12/16 09:29:05;;;;;;;22.40;12.60;;;;;;;0.14;99.96;99170.22;10360501;28;20801;-49
2023/12/16 09:34:04;;;;;;;16.55;9.32;;;;;;;0.78;99.74;99270.38;10368560;28;20056;-49
2023/12/16 09:39:03;;;;;;;19.00;10.85;;;;;;;-0.04;100.00;99118.88;10363885;28;20123;-49
2023/12/16 09:44:03;;;;;;;12.73;9.43;;;;;;;1.18;100.00;99283.03;10367220;28;20056;-49
2023/12/16 09:49:02;;;;;;;;;;;;;;;1.58;100.00;99345.16;10368132;28;20057;-48
2023/12/16 09:54:01;;;;;;;14.95;9.63;;;;;;;1.50;99.40;99348.94;10368785;28;19962;-49
2023/12/16 09:59:01;;;;;;;14.23;9.75;;;;;;;1.04;99.55;99289.91;10369270;28;20468;-49
2023/12/16 10:04:01;;;;;;;11.70;8.52;;;;;;;1.25;99.65;99306.53;10369355;28;20064;-49
2023/12/16 10:09:00;;;;;;;14.02;9.35;;;;;;;1.46;98.91;99312.06;10369028;28;20060;-49
2023/12/16 10:14:00;;;;;;;14.52;8.95;;;;;;;1.65;98.91;99333.63;10367021;28;20117;-48
2023/12/16 10:18:59;;;;;;;13.10;8.65;;;;;;;1.60;98.59;99337.56;10367472;28;20151;-49
2023/12/16 10:24:00;;;;;;;10.80;7.28;;;;;;;1.77;98.97;99338.59;10367856;28;20072;-48
2023/12/16 10:29:01;;;;;;;13.90;6.53;;;;;;;1.58;97.79;99332.38;10364328;28;20104;-49
2023/12/16 10:34:01;;;;;;;14.48;10.25;;;;;;;1.38;98.83;99291.91;10367496;28;20049;-49
2023/12/16 10:39:00;;;;;;;16.13;9.55;;;;;;;1.32;97.77;99320.59;10366315;28;20132;-51
2023/12/16 10:43:59;;;;;;;18.77;13.02;;;;;;;1.66;97.32;99326.03;10366347;28;20043;-50
2023/12/16 10:49:01;;;;;;;17.30;10.43;;;;;;;1.21;97.92;99262.78;10365235;28;20049;-49
2023/12/16 10:54:05;;;;;;;22.45;11.40;;;;;;;1.75;98.29;99349.59;10366646;28;20056;-49
2023/12/16 10:59:05;;;;;;;19.55;12.65;;;;;;;1.71;98.44;99288.78;10366798;28;20127;-49
2023/12/16 11:04:16;;;;;;;17.63;12.38;;;;;;;2.02;97.00;99353.69;10366638;28;20135;-48
2023/12/16 11:09:17;;;;;;;18.52;11.82;;;;;;;1.75;96.06;99279.63;10365804;28;20112;-48
2023/12/16 11:14:17;;;;;;;11.95;7.72;;;;;;;2.26;96.85;99315.84;10361985;28;20124;-49
2023/12/16 11:19:19;;;;;;;10.30;6.38;;;;;;;2.22;95.54;99314.75;10362867;28;20064;-49
2023/12/16 11:24:18;;;;;;;12.00;7.45;;;;;;;2.59;96.38;99329.66;10365043;28;20585;-50
2023/12/16 11:29:24;;;;;;;10.57;7.18;;;;;;;2.67;96.67;99299.31;10363799;28;20100;-49
2023/12/16 11:34:38;;;;;;;11.13;7.40;;;;;;;2.76;93.46;99315.19;10364712;28;20112;-49
2023/12/16 11:39:43;;;;;;;14.35;9.43;;;;;;;2.26;94.11;99279.97;10364177;28;20048;-49
2023/12/16 11:44:48;;;;;;;11.15;7.85;;;;;;;2.75;95.05;99309.19;10365935;28;20051;-49
2023/12/16 11:49:48;;;;;;;12.38;8.35;;;;;;;2.80;93.33;99318.00;10365431;28;20108;-48
2023/12/16 11:54:57;;;;;;;11.13;7.00;;;;;;;2.47;92.83;99291.41;10365988;28;20152;-48
2023/12/16 11:59:56;;;;;;;14.38;8.63;;;;;;;2.20;94.23;99229.28;10365192;28;20140;-48
2023/12/16 12:04:59;;;;;;;16.23;10.32;;;;;;;2.62;95.00;99282.81;10363970;28;20052;-52
2023/12/16 12:09:58;;;;;;;13.35;9.55;;;;;;;2.92;96.58;99302.41;10364381;28;20445;-49
2023/12/16 12:14:57;;;;;;;12.18;8.15;;;;;;;3.27;96.54;99362.41;10364831;28;20448;-48
2023/12/16 12:19:57;;;;;;;17.83;11.23;;;;;;;3.29;95.80;99352.25;10363546;28;20513;-49
2023/12/16 12:24:57;;;;;;;13.90;9.38;;;;;;;3.16;95.55;99345.56;10363228;28;20151;-48
2023/12/16 12:30:01;;;;;;;21.98;15.82;;;;;;;3.13;96.17;99343.72;10367494;28;20112;-51
2023/12/16 12:35:07;;;;;;;32.85;21.33;;;;;;;3.01;96.62;99322.56;10371959;28;20119;-49
2023/12/16 12:40:13;;;;;;;16.70;9.38;;;;;;;2.23;94.31;99361.72;10369930;28;20113;-49
2023/12/16 12:45:32;;;;;;;19.50;13.40;;;;;;;1.98;94.21;99362.88;10365715;28;20119;-49
2023/12/16 12:50:31;;;;;;;21.03;13.40;;;;;;;1.37;95.53;99333.66;10364007;28;20554;-50
2023/12/16 12:55:30;;;;;;;16.48;10.02;;;;;;;1.10;96.53;99347.38;10363661;28;20459;-49
2023/12/16 13:00:28;;;;;;;16.60;10.82;;;;;;;1.23;97.28;99369.47;10361119;28;20115;-49
2023/12/16 13:05:27;;;;;;;13.15;8.85;;;;;;;1.00;97.93;99369.72;10365805;28;20043;-50
2023/12/16 13:10:26;;;;;;;14.05;8.70;;;;;;;1.09;98.16;99383.09;10369871;28;20676;-49
2023/12/16 13:15:25;;;;;;;15.75;9.32;;;;;;;0.86;97.39;99396.97;10364778;28;20112;-49
2023/12/16 13:20:26;;;;;;;14.60;8.82;;;;;;;0.41;99.10;99366.00;10362783;28;20040;-49
2023/12/16 13:25:25;;;;;;;18.92;10.07;;;;;;;0.60;99.11;99392.75;10367608;28;20159;-49
2023/12/16 13:30:24;;;;;;;19.85;11.45;;;;;;;0.48;100.00;99409.03;10359746;28;20029;-49
2023/12/16 13:35:23;;;;;;;15.75;10.55;;;;;;;0.56;100.00;99441.88;10362910;28;20056;-49
2023/12/16 13:40:22;;;;;;;23.13;14.18;;;;;;;0.76;100.00;99451.72;10367417;28;20032;-48
2023/12/16 13:45:21;;;;;;;15.07;8.70;;;;;;;0.39;100.00;99446.75;10362784;28;20040;-48
2023/12/16 13:50:21;;;;;;;20.25;11.18;;;;;;;0.44;100.00;99482.81;10366778;28;20124;-50
2023/12/16 13:55:20;;;;;;;16.73;9.35;;;;;;;0.30;100.00;99458.91;10365687;28;20161;-50
2023/12/16 14:00:19;;;;;;;18.30;12.02;;;;;;;0.07;100.00;99428.41;10369203;28;20129;-49
2023/12/16 14:05:17;;;;;;;27.20;16.83;;;;;;;0.05;100.00;99429.19;10368979;28;20037;-49
2023/12/16 14:10:16;;;;;;;26.92;16.02;;;;;;;0.38;100.00;99483.28;10368144;28;20832;-50
2023/12/16 14:15:15;;;;;;;21.27;12.85;;;;;;;0.05;100.00;99459.81;10368775;28;20048;-50
2023/12/16 14:20:14;;;;;;;23.65;13.38;;;;;;;0.33;100.00;99493.97;10367325;28;20581;-49
2023/12/16 14:25:15;;;;;;;20.80;12.38;;;;;;;0.09;100.00;99452.38;10367542;28;20041;-49
2023/12/16 14:30:14;;;;;;;24.77;14.63;;;;;;;0.40;100.00;99475.72;10366306;28;20048;-50
2023/12/16 14:35:13;;;;;;;19.50;11.50;;;;;;;0.07;100.00;99436.06;10365705;28;20499;-49
2023/12/16 14:40:12;;;;;;;24.90;14.48;;;;;;;0.27;100.00;99474.91;10365428;28;20727;-49
2023/12/16 14:45:12;;;;;;;20.63;12.50;;;;;;;0.54;100.00;99522.63;10367096;28;20036;-50
2023/12/16 14:50:11;;;;;;;21.77;14.30;;;;;;;0.44;100.00;99522.00;10366049;28;20468;-50
2023/12/16 14:55:10;;;;;;;20.25;12.93;;;;;;;0.55;100.00;99548.28;10365814;28;20511;-51
2023/12/16 15:00:10;;;;;;;20.60;12.55;;;;;;;0.57;100.00;99530.47;10355806;28;20419;-49
2023/12/16 15:05:09;;;;;;;22.40;13.10;;;;;;;0.64;100.00;99548.00;10361117;28;20115;-49
2023/12/16 15:10:08;;;;;;;76.00;38.47;;;;;;;0.77;100.00;99553.13;10363858;28;20098;-50
2023/12/16 15:15:08;;;;;;;32.70;19.92;;;;;;;0.90;100.00;99568.50;10364500;28;20053;-50
2023/12/16 15:20:08;;;;;;;27.35;18.50;;;;;;;0.61;100.00;99518.00;10361258;28;20124;-49
2023/12/16 15:25:07;;;;;;;28.88;18.08;;;;;;;0.63;100.00;99503.66;10362942;28;20119;-49
2023/12/16 15:30:08;;;;;;;24.15;14.07;;;;;;;1.05;100.00;99567.75;10364282;28;20060;-48
2023/12/16 15:35:07;;;;;;;36.63;21.90;;;;;;;1.08;100.00;99560.25;10361919;28;20700;-49
2023/12/16 15:40:09;;;;;;;38.97;24.58;;;;;;;1.11;99.90;99547.69;10364314;28;20117;-48
2023/12/16 15:45:08;;;;;;;26.98;16.40;;;;;;;1.40;99.95;99581.94;10363723;28;20112;-49
2023/12/16 15:50:07;;;;;;;28.23;17.70;;;;;;;1.37;100.00;99561.28;10366004;28;20107;-49
2023/12/16 15:55:06;;;;;;;;;;;;;;;1.56;99.46;99588.94;10362089;28;20129;-51
2023/12/16 16:00:08;;;;;;;28.30;16.83;;;;;;;1.40;99.11;99572.59;10363556;28;19920;-49
2023/12/16 16:05:07;;;;;;;31.17;18.70;;;;;;;1.33;99.43;99540.59;10366903;28;20060;-51
2023/12/16 16:10:06;;;;;;;;;;;;;;;1.65;99.27;99605.75;10373625;28;20056;-49
2023/12/16 16:15:06;;;;;;;27.37;17.77;;;;;;;1.51;99.38;99570.72;10372776;28;20385;-48
2023/12/16 16:20:07;;;;;;;22.30;12.98;;;;;;;1.92;100.00;99605.72;10372505;28;20080;-51
2023/12/16 16:25:06;;;;;;;17.20;9.20;;;;;;;1.11;98.96;99511.91;10371739;28;20116;-48
2023/12/16 16:30:07;;;;;;;35.33;22.85;;;;;;;1.68;98.95;99613.63;10371095;28;20063;-49
2023/12/16 16:35:07;;;;;;;32.15;22.48;;;;;;;1.42;99.12;99568.47;10369151;28;20468;-49
2023/12/16 16:40:06;;;;;;;35.17;20.73;;;;;;;1.48;99.35;99550.94;10371184;28;20922;-48
2023/12/16 16:45:06;;;;;;;36.25;22.85;;;;;;;0.45;98.70;99408.84;10371253;28;20071;-48
2023/12/16 16:50:05;;;;;;;30.13;18.25;;;;;;;1.60;99.52;99607.13;10372279;28;20455;-48
2023/12/16 16:55:07;;;;;;;;;;;;;;;1.96;100.00;99633.28;10371206;28;20057;-48
2023/12/16 17:00:09;;;;;;;25.42;16.73;;;;;;;2.00;99.58;99636.91;10369580;28;19975;-48
2023/12/16 17:05:09;;;;;;;22.75;14.65;;;;;;;1.69;99.96;99589.81;10369509;28;20163;-48
2023/12/16 17:10:09;;;;;;;28.17;16.88;;;;;;;1.91;99.15;99619.31;10368811;28;20049;-49
2023/12/16 17:15:09;;;;;;;26.15;15.60;;;;;;;1.68;98.94;99595.69;10366957;28;20524;-48
2023/12/16 17:20:11;;;;;;;36.28;20.25;;;;;;;1.63;98.95;99661.06;10369764;28;20476;-48
2023/12/16 17:25:10;;;;;;;36.38;21.83;;;;;;;1.28;99.84;99657.06;10369864;28;20476;-48
2023/12/16 17:30:10;;;;;;;31.77;17.83;;;;;;;0.89;100.00;99622.94;10368998;28;20083;-48
2023/12/16 17:35:10;;;;;;;36.50;20.13;;;;;;;0.60;100.00;99617.56;10369824;28;20139;-48
2023/12/16 17:40:09;;;;;;;37.28;18.90;;;;;;;-0.54;100.00;99450.59;10369038;28;20025;-49
2023/12/16 17:45:08;;;;;;;37.25;19.48;;;;;;;0.86;100.00;99671.31;10369438;28;20069;-49
2023/12/16 17:50:07;;;;;;;51.85;23.73;;;;;;;0.76;100.00;99657.81;10369967;28;20071;-48
2023/12/16 17:55:10;;;;;;;37.42;21.05;;;;;;;0.76;100.00;99633.16;10369142;28;20522;-48
2023/12/16 18:00:10;;;;;;;44.97;25.70;;;;;;;1.06;100.00;99643.63;10368980;28;20120;-48
2023/12/16 18:05:10;;;;;;;;;;;;;;;1.38;100.00;99673.03;10369236;28;20078;-48
2023/12/16 18:10:09;;;;;;;;;;;;;;;1.39;99.36;99678.25;10369315;28;19944;-48
2023/12/16 18:15:09;;;;;;;33.42;17.23;;;;;;;1.14;99.17;99633.94;10367727;28;19921;-48
2023/12/16 18:20:08;;;;;;;33.40;17.05;;;;;;;1.28;99.62;99681.78;10367859;28;20129;-51
2023/12/16 18:25:08;;;;;;;40.10;21.25;;;;;;;1.06;98.80;99697.31;10367844;28;20086;-49
2023/12/16 18:30:07;;;;;;;;;;;;;;;0.96;99.80;99711.16;10367199;28;20049;-50
2023/12/16 18:35:06;;;;;;;43.97;23.77;;;;;;;0.81;100.00;99689.69;10365841;28;19955;-48
2023/12/16 18:40:06;;;;;;;;;;;;;;;1.03;100.00;99715.03;10361564;28;20936;-48
2023/12/16 18:45:06;;;;;;;47.78;24.88;;;;;;;1.04;100.00;99714.25;10366562;28;20007;-48
2023/12/16 18:50:05;;;;;;;45.15;23.80;;;;;;;0.89;100.00;99678.28;10365352;28;20100;-49
2023/12/16 18:55:05;;;;;;;36.80;18.88;;;;;;;0.74;100.00;99682.38;10364149;28;20098;-50
2023/12/16 19:00:05;;;;;;;36.80;18.60;;;;;;;0.88;100.00;99723.41;10365605;28;20135;-48
2023/12/16 19:05:04;;;;;;;40.60;19.48;;;;;;;0.73;100.00;99707.03;10365212;28;20057;-48
2023/12/16 19:10:06;;;;;;;;;;;;;;;0.74;100.00;99741.16;10364448;28;20061;-48
2023/12/16 19:15:05;;;;;;;35.30;18.48;;;;;;;0.65;100.00;99703.06;10364510;28;20395;-49
2023/12/16 19:20:05;;;;;;;;;;;;;;;0.87;100.00;99747.22;10366585;28;20075;-48
2023/12/16 19:25:10;;;;;;;40.03;19.00;;;;;;;-0.41;100.00;99527.19;10365222;28;19944;-48
2023/12/16 19:30:09;;;;;;;32.70;17.45;;;;;;;0.83;100.00;99752.91;10365753;28;20112;-49
2023/12/16 19:35:08;;;;;;;38.03;20.38;;;;;;;0.55;100.00;99690.44;10364886;28;20056;-48
2023/12/16 19:40:07;;;;;;;38.63;18.98;;;;;;;0.53;100.00;99702.22;10364676;28;20025;-49
2023/12/16 19:45:06;;;;;;;;;;;;;;;0.82;99.94;99761.31;10365972;28;20072;-50
2023/12/16 19:50:06;;;;;;;32.92;15.20;;;;;;;0.74;99.56;99736.91;10364756;28;20007;-48
2023/12/16 19:55:05;;;;;;;34.33;17.05;;;;;;;0.53;99.29;99689.44;10364999;28;20083;-48
2023/12/16 20:00:05;;;;;;;39.78;19.25;;;;;;;0.99;99.64;99736.94;10365122;28;20104;-48
2023/12/16 20:05:04;;;;;;;38.58;19.58;;;;;;;0.90;98.50;99732.09;10363839;28;20895;-48
2023/12/16 20:10:06;;;;;;;41.90;19.52;;;;;;;1.20;99.21;99752.88;10363837;28;20044;-48
2023/12/16 20:15:06;;;;;;;41.42;23.80;;;;;;;1.10;99.06;99728.31;10364497;28;20052;-49
2023/12/16 20:20:07;;;;;;;43.90;21.63;;;;;;;1.35;99.43;99747.03;10364093;28;20128;-49
2023/12/16 20:25:07;;;;;;;49.33;28.52;;;;;;;1.28;98.04;99718.47;10364029;28;20144;-49
2023/12/16 20:30:07;;;;;;;;;;;;;;;1.58;98.98;99769.91;10364916;28;20116;-48
2023/12/16 20:35:07;;;;;;;34.63;17.23;;;;;;;1.45;98.83;99711.03;10364534;28;20004;-48
2023/12/16 20:45:43;;;;;;;32.17;17.17;;;;;;;1.33;98.30;99665.94;10345221;28;20128;-48
2023/12/16 20:50:42;;;;;;;39.90;22.88;;;;;;;1.50;98.04;99704.53;10356852;28;20068;-47
2023/12/16 20:55:41;;;;;;;;;;;;;;;1.91;97.56;99793.41;10370973;28;20067;-48
2023/12/16 21:00:40;;;;;;;40.47;21.77;;;;;;;1.78;98.21;99766.09;10368676;28;20043;-47
2023/12/16 21:05:39;;;;;;;51.95;27.58;;;;;;;2.00;97.94;99788.91;10370373;28;20125;-48
2023/12/16 21:10:38;;;;;;;32.17;18.58;;;;;;;1.74;98.24;99749.66;10368530;28;20841;-49
2023/12/16 21:15:37;;;;;;;42.08;22.58;;;;;;;1.99;98.07;99807.59;10370525;28;20507;-48
2023/12/16 21:20:36;;;;;;;42.47;23.08;;;;;;;1.69;96.87;99755.25;10370533;28;20119;-48
2023/12/16 21:25:35;;;;;;;37.67;18.67;;;;;;;1.81;97.26;99811.50;10368599;28;20136;-47
2023/12/16 21:30:34;;;;;;;46.30;24.70;;;;;;;1.72;96.88;99810.09;10369600;28;20152;-47
2023/12/16 21:35:33;;;;;;;39.42;23.15;;;;;;;1.73;97.46;99826.34;10368717;28;20103;-48
2023/12/16 21:40:32;;;;;;;29.67;17.40;;;;;;;1.56;97.54;99781.72;10369732;28;20373;-48
2023/12/16 21:45:31;;;;;;;33.33;19.38;;;;;;;1.75;96.34;99796.63;10369928;28;20037;-47
2023/12/16 21:50:30;;;;;;;27.77;16.08;;;;;;;1.75;97.22;99806.84;10368220;28;20539;-47
2023/12/16 21:55:29;;;;;;;35.97;19.58;;;;;;;1.63;97.05;99812.03;10370007;28;20033;-47
2023/12/16 22:00:28;;;;;;;;;;;;;;;1.68;96.42;99828.59;10368858;28;20125;-47
2023/12/16 22:05:27;;;;;;;31.83;18.38;;;;;;;1.20;97.07;99741.72;10367933;28;19913;-48
2023/12/16 22:10:26;;;;;;;28.35;17.40;;;;;;;1.50;96.69;99801.75;10367558;28;20565;-48
2023/12/16 22:15:25;;;;;;;38.17;21.23;;;;;;;1.62;97.41;99828.19;10368853;28;20120;-48
2023/12/16 22:20:23;;;;;;;37.30;20.85;;;;;;;1.71;97.66;99826.22;10367641;28;20132;-47
2023/12/16 22:25:22;;;;;;;35.88;20.88;;;;;;;1.61;97.49;99777.78;10368290;28;20033;-48
2023/12/16 22:30:21;;;;;;;36.92;19.77;;;;;;;1.97;97.44;99827.06;10367336;28;21055;-48
2023/12/16 22:35:20;;;;;;;44.22;24.98;;;;;;;1.64;97.42;99736.16;10367792;28;20148;-50
2023/12/16 22:40:21;;;;;;;49.50;27.55;;;;;;;2.08;97.56;99808.19;10365439;28;20029;-49
2023/12/16 22:45:20;;;;;;;72.60;38.05;;;;;;;1.61;97.65;99721.50;10365513;28;20068;-49
2023/12/16 22:50:19;;;;;;;53.17;30.02;;;;;;;2.19;97.44;99814.03;10363594;28;20025;-49
2023/12/16 22:55:18;;;;;;;44.58;24.17;;;;;;;1.95;97.23;99769.78;10360573;28;20068;-48
2023/12/16 23:05:20;;;;;;;47.50;28.15;;;;;;;2.02;96.87;99771.06;10363756;28;20069;-49
2023/12/16 23:10:19;;;;;;;;;;;;;;;2.38;94.86;99844.28;10365820;28;20735;-49